Time;durP1;ratioP1;P1;durP2;ratioP2;P2;SDS_P1;SDS_P2;PMS_P1;PMS_P2;Temp;Humidity;BMP_temperature;BMP_pressure;BME280_temperature;BME280_humidity;BME280_pressure;Samples;Min_cycle;Max_cycle;Signal;HPM_P1;HPM_P2
2022/01/26 00:07:40;;;;;;;109.90;56.15;;;;;;;-146.48;100.00;31037.34;5281570;28;20052;-68
2022/01/26 00:10:11;;;;;;;119.38;57.50;;;;;;;-146.48;100.00;31118.91;5281659;28;20036;-68
2022/01/26 00:12:42;;;;;;;118.32;56.97;;;;;;;-146.48;100.00;31182.53;5282123;28;20024;-68
2022/01/26 00:15:14;;;;;;;121.50;55.90;;;;;;;-146.48;100.00;31210.41;5280860;28;20036;-68
2022/01/26 00:17:46;;;;;;;115.78;56.03;;;;;;;-146.48;100.00;31220.34;5282073;28;20036;-68
2022/01/26 00:20:26;;;;;;;117.82;56.67;;;;;;;-146.48;100.00;31327.75;5281698;28;20434;-67
2022/01/26 00:23:20;;;;;;;119.63;57.00;;;;;;;-146.48;100.00;31315.81;5280514;28;20032;-68
2022/01/26 00:26:09;;;;;;;115.70;56.92;;;;;;;-146.48;100.00;31331.72;5282376;28;20016;-67
2022/01/26 00:28:57;;;;;;;94.13;47.58;;;;;;;-146.48;100.00;31401.34;5281390;28;20444;-68
2022/01/26 00:40:14;;;;;;;117.97;57.85;;;;;;;-146.48;100.00;31371.50;5281728;28;20028;-68
2022/01/26 00:42:48;;;;;;;114.40;54.88;;;;;;;-146.48;100.00;31385.44;5281293;28;20541;-68
2022/01/26 00:45:24;;;;;;;121.00;57.47;;;;;;;-146.48;100.00;31397.38;5281332;28;20056;-68
2022/01/26 00:47:57;;;;;;;113.43;53.97;;;;;;;-146.48;100.00;31449.09;5281678;28;20055;-68
2022/01/26 00:50:28;;;;;;;122.85;56.72;;;;;;;-146.48;100.00;31465.00;5281215;28;20033;-68
2022/01/26 00:53:00;;;;;;;118.40;57.10;;;;;;;-146.48;100.00;31480.91;5281384;28;20028;-68
2022/01/26 00:55:32;;;;;;;120.03;58.25;;;;;;;-146.48;100.00;31522.69;5281895;28;20043;-67
2022/01/26 00:58:03;;;;;;;120.28;57.55;;;;;;;-146.48;100.00;31542.56;5280342;28;20078;-68
2022/01/26 01:00:35;;;;;;;121.70;55.70;;;;;;;-146.48;100.00;31538.59;5281719;28;20053;-68
2022/01/26 01:03:06;;;;;;;121.50;56.13;;;;;;;-146.48;100.00;31443.13;5281319;28;20128;-68
2022/01/26 01:06:01;;;;;;;119.32;57.30;;;;;;;-146.48;100.00;31494.84;5281153;28;20438;-68
2022/01/26 01:08:31;;;;;;;121.47;58.13;;;;;;;-146.48;100.00;31297.91;5281544;28;20391;-68
2022/01/26 01:11:03;;;;;;;116.88;56.42;;;;;;;-146.48;100.00;31339.69;5280047;28;20028;-68
2022/01/26 01:13:38;;;;;;;119.28;56.15;;;;;;;-146.48;100.00;31363.56;5281738;28;20033;-68
2022/01/26 01:16:16;;;;;;;117.55;57.42;;;;;;;-146.48;100.00;31333.72;5281090;28;20023;-68
2022/01/26 01:18:58;;;;;;;121.70;56.42;;;;;;;-146.48;100.00;31355.59;5280934;28;20033;-67
2022/01/26 01:27:05;;;;;;;123.88;57.63;;;;;;;-146.48;100.00;31423.22;5280778;28;20115;-67
2022/01/26 01:29:47;;;;;;;115.90;54.78;;;;;;;-146.48;100.00;31393.38;5282199;28;20029;-68
2022/01/26 01:32:28;;;;;;;123.05;56.65;;;;;;;-146.48;100.00;31391.41;5284079;28;20036;-68
2022/01/26 01:35:00;;;;;;;117.55;55.05;;;;;;;-146.48;100.00;31431.19;5284865;28;20042;-68
2022/01/26 01:37:31;;;;;;;122.13;56.10;;;;;;;-146.48;100.00;31465.00;5285289;28;20234;-67
2022/01/26 01:40:03;;;;;;;127.45;56.33;;;;;;;-146.48;100.00;31443.13;5283703;28;20032;-67
2022/01/26 01:42:35;;;;;;;122.53;58.25;;;;;;;-146.48;100.00;31468.97;5284876;28;20040;-67
2022/01/26 01:45:06;;;;;;;124.40;57.13;;;;;;;-146.48;100.00;31530.63;5284609;28;20407;-68
2022/01/26 01:47:38;;;;;;;121.40;57.90;;;;;;;-146.48;100.00;31596.28;5284389;28;20108;-68
2022/01/26 01:50:12;;;;;;;124.65;57.75;;;;;;;-146.48;100.00;31665.91;5284678;28;20035;-67
2022/01/26 01:52:43;;;;;;;126.22;58.65;;;;;;;-146.48;100.00;31701.72;5284153;28;20021;-67
2022/01/26 01:55:16;;;;;;;125.90;58.95;;;;;;;-146.48;100.00;31735.53;5284495;28;20115;-67
2022/01/26 01:57:47;;;;;;;122.03;56.15;;;;;;;-146.48;100.00;31757.41;5284974;28;20490;-67
2022/01/26 02:00:19;;;;;;;122.40;56.10;;;;;;;-146.48;100.00;31747.47;5283501;28;20116;-67
2022/01/26 02:02:50;;;;;;;121.63;56.15;;;;;;;-146.48;100.00;31731.56;5284608;28;20116;-67
2022/01/26 02:05:21;;;;;;;124.50;55.40;;;;;;;-146.48;100.00;31679.84;5284178;28;20050;-67
2022/01/26 02:07:53;;;;;;;126.35;57.13;;;;;;;-146.48;100.00;31735.53;5283404;28;20040;-67
2022/01/26 02:10:25;;;;;;;126.60;56.83;;;;;;;-146.48;100.00;31753.44;5284480;28;20489;-67
2022/01/26 02:13:03;;;;;;;122.07;56.85;;;;;;;-146.48;100.00;31685.81;5284064;28;20107;-67
2022/01/26 02:16:06;;;;;;;122.18;56.20;;;;;;;-146.48;100.00;31661.94;5283636;28;20024;-67
2022/01/26 02:18:40;;;;;;;123.55;57.08;;;;;;;-146.48;100.00;31560.47;5283685;28;20052;-67
2022/01/26 02:21:55;;;;;;;130.93;58.20;;;;;;;-146.48;100.00;31576.41;5283166;28;20028;-67
2022/01/26 02:49:35;;;;;;;122.90;56.25;;;;;;;-146.48;100.00;31435.16;5283656;28;20130;-67
2022/01/26 02:50:53;;;;;;;115.20;51.70;;;;;;;-146.48;100.00;31417.25;5283282;28;20464;-68
2022/01/26 02:55:55;;;;;;;119.68;53.95;;;;;;;-146.48;100.00;31353.59;5283836;28;20119;-68
2022/01/26 03:01:41;;;;;;;116.13;52.63;;;;;;;-146.48;100.00;31194.47;5283229;28;20032;-68
2022/01/26 03:04:21;;;;;;;114.93;52.13;;;;;;;-146.48;100.00;31130.84;5282439;28;20094;-68
2022/01/26 03:07:12;;;;;;;118.35;52.60;;;;;;;-146.48;100.00;31248.19;5283239;28;20568;-68
2022/01/26 03:09:49;;;;;;;123.90;56.45;;;;;;;-146.48;100.00;31234.25;5281909;28;20098;-67
2022/01/26 03:12:31;;;;;;;119.43;53.53;;;;;;;-146.48;100.00;31222.31;5289863;28;20019;-68
2022/01/26 03:15:12;;;;;;;117.95;52.80;;;;;;;-146.48;100.00;31162.66;5303106;28;20103;-67
2022/01/26 03:20:37;;;;;;;112.75;52.50;;;;;;;-146.48;100.00;31240.22;5304482;28;20044;-67
2022/01/26 03:34:14;;;;;;;125.15;55.05;;;;;;;-146.48;100.00;31254.16;5303603;28;20028;-67
2022/01/26 03:36:54;;;;;;;123.82;56.40;;;;;;;-146.48;100.00;31284.00;5304183;28;20028;-67
2022/01/26 03:39:26;;;;;;;121.78;55.58;;;;;;;-146.48;100.00;31293.94;5303006;28;20028;-67
2022/01/26 03:42:05;;;;;;;115.43;54.60;;;;;;;-146.48;100.00;31359.56;5302994;28;20069;-68
2022/01/26 03:44:36;;;;;;;;;;;;;;;-146.48;100.00;31361.56;5304474;28;20023;-67
2022/01/26 03:47:09;;;;;;;120.80;51.92;;;;;;;-146.48;100.00;31381.44;5302233;28;19912;-66
2022/01/26 03:49:41;;;;;;;117.15;52.40;;;;;;;-146.48;100.00;31387.41;5303953;28;20031;-67
2022/01/26 03:52:12;;;;;;;116.57;53.65;;;;;;;-146.48;100.00;31293.94;5302210;28;20032;-67
2022/01/26 03:54:44;;;;;;;123.63;54.63;;;;;;;-146.48;100.00;31295.91;5303520;28;20024;-67
2022/01/26 03:57:15;;;;;;;119.82;54.78;;;;;;;-146.48;100.00;31208.41;5302928;28;20450;-67
2022/01/26 03:59:46;;;;;;;120.60;54.58;;;;;;;-146.48;100.00;31212.38;5302593;28;20028;-68
2022/01/26 04:02:18;;;;;;;119.28;54.67;;;;;;;-146.48;100.00;31222.31;5303013;28;20028;-67
2022/01/26 04:04:55;;;;;;;123.22;56.47;;;;;;;-146.48;100.00;31307.84;5303568;28;20032;-67
2022/01/26 04:07:26;;;;;;;117.10;52.65;;;;;;;-146.48;100.00;31325.75;5302266;28;20048;-67
2022/01/26 04:10:06;;;;;;;124.45;55.47;;;;;;;-146.48;100.00;31365.53;5302900;28;20039;-68
2022/01/26 04:12:39;;;;;;;126.75;56.17;;;;;;;-146.48;100.00;31383.44;5303327;28;20104;-68
2022/01/26 04:15:21;;;;;;;118.10;53.75;;;;;;;-146.48;100.00;31431.19;5302055;28;20016;-68
2022/01/26 04:17:53;;;;;;;123.47;54.50;;;;;;;-146.48;100.00;31393.38;5303052;28;20025;-68
2022/01/26 04:20:28;;;;;;;126.95;54.70;;;;;;;-146.48;100.00;31395.38;5302219;28;20035;-68
2022/01/26 04:23:19;;;;;;;121.40;56.17;;;;;;;-146.48;100.00;31339.69;5302757;28;20032;-66
2022/01/26 04:25:52;;;;;;;121.97;55.17;;;;;;;-146.48;100.00;31268.06;5303139;28;20077;-67
2022/01/26 04:28:30;;;;;;;116.40;52.47;;;;;;;-146.48;100.00;31323.78;5302046;28;20053;-67
2022/01/26 04:31:01;;;;;;;121.30;53.22;;;;;;;-146.48;100.00;31379.47;5302379;28;20028;-66
2022/01/26 04:33:34;;;;;;;121.82;54.65;;;;;;;-146.48;100.00;31425.22;5303216;28;20348;-66
2022/01/26 04:36:06;;;;;;;117.38;52.08;;;;;;;-146.48;100.00;31486.88;5301966;28;20031;-67
2022/01/26 04:38:44;;;;;;;124.07;54.00;;;;;;;-146.48;100.00;31467.00;5303011;28;20028;-67
2022/01/26 04:41:33;;;;;;;121.50;54.72;;;;;;;-146.48;100.00;31467.00;5302362;28;20020;-67
2022/01/26 04:44:12;;;;;;;121.50;55.50;;;;;;;-146.48;100.00;31447.09;5302308;28;20430;-67
2022/01/26 04:46:43;;;;;;;121.47;51.70;;;;;;;-146.48;100.00;31510.75;5302995;28;20098;-67
2022/01/26 04:49:15;;;;;;;121.53;53.90;;;;;;;-146.48;100.00;31562.47;5301622;28;20274;-67
2022/01/26 04:51:46;;;;;;;123.10;54.78;;;;;;;-146.48;100.00;31663.91;5302771;28;20032;-66
2022/01/26 04:54:18;;;;;;;124.22;54.83;;;;;;;-146.48;100.00;31634.09;5302508;28;20027;-67
2022/01/26 04:56:49;;;;;;;121.75;55.05;;;;;;;-146.48;100.00;31705.69;5302288;28;20024;-67
2022/01/26 04:59:20;;;;;;;127.15;54.30;;;;;;;-146.48;100.00;31653.97;5302380;28;20020;-67
2022/01/26 05:01:51;;;;;;;114.57;52.28;;;;;;;-146.48;100.00;31689.78;5302855;28;20024;-67
2022/01/26 05:04:23;;;;;;;117.95;52.33;;;;;;;-146.48;100.00;31769.34;5301702;28;20105;-67
2022/01/26 05:06:54;;;;;;;117.90;53.22;;;;;;;-146.48;100.00;31723.59;5306646;28;20032;-67
2022/01/26 05:09:25;;;;;;;115.60;51.85;;;;;;;-146.48;100.00;31781.28;5306770;28;20020;-66
2022/01/26 05:11:57;;;;;;;119.40;53.00;;;;;;;-146.48;100.00;31840.97;5305397;28;20032;-67
2022/01/26 05:14:29;;;;;;;122.90;52.05;;;;;;;-146.48;100.00;31815.09;5306894;28;20383;-68
2022/01/26 05:17:00;;;;;;;115.95;52.15;;;;;;;-146.48;100.00;31894.69;5305246;28;20028;-67
2022/01/26 05:19:32;;;;;;;115.97;52.50;;;;;;;-146.48;100.00;31918.56;5306868;28;20043;-67
2022/01/26 05:22:03;;;;;;;119.10;52.03;;;;;;;-146.48;100.00;31896.66;5306110;28;20028;-68
2022/01/26 05:24:35;;;;;;;122.57;54.53;;;;;;;-146.48;100.00;31854.91;5305875;28;20024;-67
2022/01/26 05:27:06;;;;;;;127.17;53.67;;;;;;;-146.48;100.00;31827.03;5305996;28;20020;-68
2022/01/26 05:29:37;;;;;;;121.70;53.10;;;;;;;-146.48;100.00;31821.06;5306764;28;20024;-67
2022/01/26 05:32:08;;;;;;;118.13;52.53;;;;;;;-146.48;100.00;31908.59;5304986;28;20024;-67
2022/01/26 05:34:40;;;;;;;115.55;51.15;;;;;;;-146.48;100.00;31898.66;5306533;28;20084;-68
2022/01/26 05:37:11;;;;;;;119.10;54.60;;;;;;;-146.48;100.00;31920.53;5305720;28;20044;-68
2022/01/26 05:39:43;;;;;;;116.82;53.22;;;;;;;-146.48;100.00;31900.66;5305552;28;20028;-68
2022/01/26 05:42:15;;;;;;;117.47;51.80;;;;;;;-146.48;100.00;31972.28;5305789;28;20028;-68
2022/01/26 05:44:47;;;;;;;103.50;43.83;;;;;;;-146.48;100.00;31872.81;5305276;28;20107;-68
2022/01/26 05:47:20;;;;;;;121.68;52.25;;;;;;;-146.48;100.00;31870.81;5305693;28;20435;-68
2022/01/26 05:49:51;;;;;;;121.93;53.45;;;;;;;-146.48;100.00;31882.75;5306311;28;20028;-68
2022/01/26 05:52:22;;;;;;;121.95;53.58;;;;;;;-146.48;100.00;31874.78;5304682;28;20051;-68
2022/01/26 05:54:54;;;;;;;123.70;53.78;;;;;;;-146.48;100.00;31968.28;5305598;28;20071;-68
2022/01/26 05:57:25;;;;;;;123.82;55.10;;;;;;;-146.48;100.00;32067.75;5305622;28;20438;-66
2022/01/26 05:59:57;;;;;;;124.13;55.23;;;;;;;-146.48;100.00;32024.00;5304546;28;20411;-69
2022/01/26 06:02:30;;;;;;;116.97;51.80;;;;;;;-146.48;100.00;32121.47;5305712;28;20081;-69
2022/01/26 06:05:04;;;;;;;123.30;54.28;;;;;;;-146.48;100.00;32121.47;5305188;28;20035;-69
2022/01/26 06:07:35;;;;;;;126.32;53.63;;;;;;;-146.48;100.00;32187.13;5304757;28;20056;-68
2022/01/26 06:10:07;;;;;;;122.75;55.95;;;;;;;-146.48;100.00;32236.88;5305387;28;20032;-66
2022/01/26 06:12:38;;;;;;;124.55;54.70;;;;;;;-146.48;100.00;32306.50;5305593;28;20028;-67
2022/01/26 06:15:09;;;;;;;120.85;54.83;;;;;;;-146.48;100.00;32358.25;5304288;28;20375;-67
2022/01/26 06:17:40;;;;;;;123.47;53.78;;;;;;;-146.48;100.00;32407.97;5305683;28;20507;-67
2022/01/26 06:20:12;;;;;;;121.78;53.47;;;;;;;-146.48;100.00;32501.50;5304119;28;20031;-67
2022/01/26 06:22:43;;;;;;;127.25;55.45;;;;;;;-146.48;100.00;32602.97;5305593;28;20036;-67
2022/01/26 06:25:15;;;;;;;125.72;55.35;;;;;;;-146.48;100.00;32718.38;5304869;28;20093;-67
2022/01/26 06:27:48;;;;;;;120.68;55.47;;;;;;;-146.48;100.00;32945.22;5304413;28;20376;-67
2022/01/26 06:30:19;;;;;;;122.93;54.30;;;;;;;-146.48;100.00;33062.63;5304850;28;20020;-67
2022/01/26 06:32:51;;;;;;;125.00;54.30;;;;;;;-146.48;100.00;33112.38;5305352;28;20039;-67
2022/01/26 06:35:23;;;;;;;120.00;53.35;;;;;;;-146.48;100.00;33199.94;5303734;28;20055;-67
2022/01/26 06:37:55;;;;;;;125.20;54.60;;;;;;;-146.48;100.00;33197.94;5304829;28;20028;-67
2022/01/26 06:40:26;;;;;;;120.50;54.63;;;;;;;-146.48;100.00;33193.97;5304697;28;20103;-67
2022/01/26 06:43:01;;;;;;;125.90;55.53;;;;;;;-146.48;100.00;33245.72;5303738;28;20028;-68
2022/01/26 06:45:37;;;;;;;129.80;56.78;;;;;;;-146.48;100.00;33305.41;5305125;28;20028;-68
2022/01/26 06:48:57;;;;;;;131.82;56.35;;;;;;;-146.48;100.00;33387.00;5303487;28;20028;-68
2022/01/26 06:51:05;;;;;;;120.47;54.40;;;;;;;-146.48;100.00;33430.78;5300768;28;20043;-67
2022/01/26 06:53:37;;;;;;;124.90;54.53;;;;;;;-146.48;100.00;33406.91;5305034;28;20028;-67
2022/01/26 06:56:08;;;;;;;119.32;54.15;;;;;;;-146.48;100.00;33478.56;5303328;28;20032;-67
2022/01/26 06:58:39;;;;;;;125.00;55.80;;;;;;;-146.48;100.00;33494.47;5304694;28;20035;-67
2022/01/26 07:01:10;;;;;;;129.23;55.00;;;;;;;-146.48;100.00;33502.44;5303757;28;20024;-67
2022/01/26 07:03:42;;;;;;;131.00;56.65;;;;;;;-146.48;100.00;33560.16;5303432;28;20044;-67
2022/01/26 07:06:14;;;;;;;132.63;56.70;;;;;;;-146.48;100.00;33548.22;5303696;28;20447;-67
2022/01/26 07:08:45;;;;;;;120.20;55.47;;;;;;;-146.48;100.00;33586.03;5304486;28;20495;-67
2022/01/26 07:11:17;;;;;;;127.45;55.72;;;;;;;-146.48;100.00;33576.06;5303054;28;20028;-68
2022/01/26 07:13:50;;;;;;;131.98;58.28;;;;;;;-146.48;100.00;33621.84;5304624;28;20028;-67
2022/01/26 07:22:01;;;;;;;132.23;56.58;;;;;;;-146.48;100.00;33635.78;5303639;28;20020;-68
2022/01/26 07:24:32;;;;;;;138.75;59.25;;;;;;;-146.48;100.00;33771.13;5303546;28;20020;-67
2022/01/26 07:27:03;;;;;;;135.05;59.13;;;;;;;-146.48;100.00;33808.94;5303098;28;20058;-67
2022/01/26 07:29:35;;;;;;;131.15;57.53;;;;;;;-146.48;100.00;33874.63;5304125;28;20077;-67
2022/01/26 07:32:07;;;;;;;139.90;57.90;;;;;;;-146.48;100.00;33902.50;5302257;28;20035;-67
2022/01/26 07:34:39;;;;;;;134.55;59.80;;;;;;;-146.48;100.00;33986.09;5303685;28;20039;-67
2022/01/26 07:37:13;;;;;;;135.57;58.63;;;;;;;-146.48;100.00;34051.78;5303143;28;20516;-67
2022/01/26 07:39:49;;;;;;;134.88;56.90;;;;;;;-146.48;100.00;34047.78;5303863;28;20024;-67
2022/01/26 07:42:20;;;;;;;137.25;57.28;;;;;;;-146.48;100.00;34095.56;5303012;28;20039;-67
2022/01/26 07:44:52;;;;;;;141.52;58.75;;;;;;;-146.48;100.00;34111.50;5302856;28;20494;-67
2022/01/26 07:47:23;;;;;;;131.52;57.50;;;;;;;-146.48;100.00;34129.41;5303293;28;20036;-67
2022/01/26 07:49:56;;;;;;;134.10;55.05;;;;;;;-146.48;100.00;34193.09;5303216;28;20116;-67
2022/01/26 07:52:30;;;;;;;133.00;56.88;;;;;;;-146.48;100.00;34284.66;5302546;28;20032;-67
2022/01/26 07:55:02;;;;;;;138.52;57.33;;;;;;;-146.48;100.00;34410.06;5302684;28;20028;-67
2022/01/26 07:57:34;;;;;;;143.88;58.88;;;;;;;-146.48;100.00;34392.16;5303280;28;20435;-67
2022/01/26 08:00:07;;;;;;;136.10;57.83;;;;;;;-146.48;100.00;34459.84;5302074;28;20388;-68
2022/01/26 08:02:38;;;;;;;139.48;58.58;;;;;;;-146.48;100.00;34603.19;5303397;28;20024;-67
2022/01/26 08:05:11;;;;;;;142.13;57.75;;;;;;;-146.48;100.00;34611.13;5302817;28;20020;-68
2022/01/26 08:07:43;;;;;;;138.63;56.33;;;;;;;-146.48;100.00;34674.84;5302159;28;20040;-68
2022/01/26 08:10:15;;;;;;;133.68;55.15;;;;;;;-146.48;100.00;34706.69;5302811;28;20539;-68
2022/01/26 08:12:48;;;;;;;132.48;56.85;;;;;;;-146.48;100.00;34810.22;5302390;28;20103;-67
2022/01/26 08:15:20;;;;;;;139.68;58.58;;;;;;;-146.48;100.00;34832.13;5302753;28;20029;-68
2022/01/26 08:17:52;;;;;;;134.20;55.50;;;;;;;-146.48;100.00;34881.88;5303704;28;20020;-68
2022/01/26 08:20:24;;;;;;;130.93;54.75;;;;;;;-146.48;100.00;34999.34;5302083;28;20028;-67
2022/01/26 08:22:56;;;;;;;135.57;55.38;;;;;;;-146.48;100.00;35061.06;5302452;28;20047;-68
2022/01/26 08:25:28;;;;;;;137.18;56.85;;;;;;;-146.48;100.00;35047.13;5302842;28;20023;-67
2022/01/26 08:28:18;;;;;;;140.43;56.35;;;;;;;-146.48;100.00;35128.78;5301614;28;20294;-68
2022/01/26 08:30:49;;;;;;;;;;;;;;;-146.48;100.00;35132.75;5303491;28;20047;-67
2022/01/26 08:33:20;;;;;;;132.68;54.53;;;;;;;-146.48;100.00;35086.97;5302450;28;19956;-67
2022/01/26 08:35:51;;;;;;;136.82;55.58;;;;;;;-146.48;100.00;35182.53;5302045;28;20043;-67
2022/01/26 08:38:23;;;;;;;139.80;54.75;;;;;;;-146.48;100.00;35202.44;5302000;28;20443;-67
2022/01/26 08:40:54;;;;;;;138.82;56.45;;;;;;;-146.48;100.00;35216.38;5301150;28;20020;-67
2022/01/26 08:43:25;;;;;;;139.38;56.33;;;;;;;-146.48;100.00;35270.13;5302448;28;20024;-67
2022/01/26 08:45:57;;;;;;;140.45;55.45;;;;;;;-146.48;100.00;35331.84;5302267;28;20028;-68
2022/01/26 08:48:29;;;;;;;133.23;54.38;;;;;;;-146.48;100.00;35379.66;5301963;28;20031;-67
2022/01/26 08:51:00;;;;;;;134.77;54.58;;;;;;;-146.48;100.00;35467.25;5299759;28;20046;-67
2022/01/26 08:53:31;;;;;;;125.95;51.05;;;;;;;-146.48;100.00;35511.06;5301250;28;20024;-67
2022/01/26 08:56:03;;;;;;;131.82;55.22;;;;;;;-146.48;100.00;35634.53;5300366;28;20016;-67
2022/01/26 08:58:34;;;;;;;139.35;56.63;;;;;;;-146.48;100.00;35716.16;5301512;28;20039;-67
2022/01/26 09:01:05;;;;;;;127.53;52.30;;;;;;;-146.48;100.00;35754.00;5300675;28;20442;-67
2022/01/26 09:03:39;;;;;;;124.05;52.28;;;;;;;-146.48;100.00;35865.53;5300161;28;20383;-67
2022/01/26 09:06:10;;;;;;;122.68;51.47;;;;;;;-146.48;100.00;35847.59;5300518;28;20407;-68
2022/01/26 09:08:45;;;;;;;123.22;51.78;;;;;;;-146.48;100.00;35873.47;5300880;28;20024;-67
2022/01/26 09:11:21;;;;;;;118.82;51.10;;;;;;;-146.48;100.00;35839.63;5300825;28;20032;-67
2022/01/26 09:13:57;;;;;;;120.15;51.38;;;;;;;-146.48;100.00;35805.78;5301340;28;20100;-66
2022/01/26 09:16:29;;;;;;;119.22;50.58;;;;;;;-146.48;100.00;35863.53;5300138;28;20032;-67
2022/01/26 09:19:11;;;;;;;117.45;49.85;;;;;;;-146.48;100.00;35857.56;5300546;28;20028;-68
2022/01/26 09:21:42;;;;;;;116.95;49.95;;;;;;;-146.48;100.00;35819.72;5301286;28;20116;-68
2022/01/26 09:24:14;;;;;;;116.13;49.30;;;;;;;-146.48;100.00;35734.09;5299702;28;20122;-68
2022/01/26 09:26:46;;;;;;;119.13;50.35;;;;;;;-146.48;100.00;35757.97;5301255;28;20422;-68
2022/01/26 09:29:17;;;;;;;108.20;46.80;;;;;;;-146.48;100.00;35698.25;5299917;28;20013;-68
2022/01/26 09:31:49;;;;;;;115.93;50.05;;;;;;;-146.48;100.00;35754.00;5300390;28;20035;-68
2022/01/26 09:34:23;;;;;;;114.47;49.90;;;;;;;-146.48;100.00;35799.81;5300708;28;20069;-67
2022/01/26 09:36:55;;;;;;;110.70;48.70;;;;;;;-146.48;100.00;35791.84;5299890;28;20035;-68
2022/01/26 09:39:27;;;;;;;114.30;50.75;;;;;;;-146.48;100.00;35859.53;5300688;28;20103;-67
2022/01/26 09:41:58;;;;;;;110.88;50.03;;;;;;;-146.48;100.00;35897.38;5300006;28;20396;-68
2022/01/26 09:44:33;;;;;;;109.22;48.63;;;;;;;-146.48;100.00;35883.44;5300327;28;20376;-68
2022/01/26 09:47:05;;;;;;;102.22;45.90;;;;;;;-146.48;100.00;35891.41;5300575;28;20107;-67
2022/01/26 09:49:37;;;;;;;104.72;47.28;;;;;;;-146.48;100.00;35843.63;5300970;28;20032;-67
2022/01/26 09:52:20;;;;;;;103.57;47.33;;;;;;;-146.48;100.00;35799.81;5302676;28;20039;-68
2022/01/26 09:54:52;;;;;;;100.82;44.40;;;;;;;-146.48;100.00;35706.22;5304437;28;20364;-67
2022/01/26 09:57:23;;;;;;;100.70;44.20;;;;;;;-146.48;100.00;35676.34;5304358;28;20024;-67
2022/01/26 09:59:56;;;;;;;93.32;44.83;;;;;;;-146.48;100.00;35620.59;5303605;28;20082;-68
2022/01/26 10:02:33;;;;;;;90.72;42.90;;;;;;;-146.48;100.00;35592.72;5304248;28;20146;-68
2022/01/26 10:05:08;;;;;;;101.55;45.28;;;;;;;-146.48;100.00;35644.47;5303345;28;20480;-67
2022/01/26 10:07:51;;;;;;;93.75;42.60;;;;;;;-146.48;100.00;35527.00;5304047;28;20045;-68
2022/01/26 10:18:34;;;;;;;85.88;39.47;;;;;;;-146.48;100.00;35385.63;5304256;28;20521;-67
2022/01/26 10:21:08;;;;;;;81.47;39.70;;;;;;;-146.48;100.00;35399.56;5302322;28;20098;-67
2022/01/26 10:23:42;;;;;;;80.40;40.58;;;;;;;-146.48;100.00;35351.78;5304311;28;20028;-67
2022/01/26 10:26:19;;;;;;;85.57;42.17;;;;;;;-146.48;100.00;35335.84;5302716;28;20099;-67
2022/01/26 10:28:56;;;;;;;85.72;41.85;;;;;;;-146.48;100.00;35331.84;5304695;28;20069;-68
2022/01/26 10:31:37;;;;;;;81.35;40.50;;;;;;;-146.48;100.00;35359.72;5303986;28;20054;-69
2022/01/26 10:34:13;;;;;;;82.07;40.38;;;;;;;-146.48;100.00;35353.75;5302263;28;20472;-67
2022/01/26 10:36:46;;;;;;;82.97;41.05;;;;;;;-146.48;100.00;35363.72;5304032;28;20474;-68
2022/01/26 10:39:27;;;;;;;82.78;41.80;;;;;;;-146.48;100.00;35355.75;5303233;28;20051;-67
2022/01/26 10:42:03;;;;;;;87.72;41.83;;;;;;;-146.48;100.00;35319.91;5302437;28;20035;-67
2022/01/26 10:44:45;;;;;;;83.18;41.20;;;;;;;-146.48;100.00;35399.56;5303603;28;20115;-68
2022/01/26 10:47:31;;;;;;;86.47;42.50;;;;;;;-146.48;100.00;35371.69;5302048;28;20051;-68
2022/01/26 10:53:12;;;;;;;82.57;40.30;;;;;;;-146.48;100.00;35405.53;5303159;28;20032;-67
2022/01/26 10:55:43;;;;;;;82.93;41.13;;;;;;;-146.48;100.00;35449.34;5302798;28;20028;-68
2022/01/26 10:58:16;;;;;;;86.65;42.65;;;;;;;-146.48;100.00;35403.53;5302887;28;20028;-67
2022/01/26 11:00:48;;;;;;;86.75;41.17;;;;;;;-146.48;100.00;35443.38;5302899;28;20027;-68
2022/01/26 11:03:19;;;;;;;85.07;40.28;;;;;;;-146.48;100.00;35405.53;5301162;28;20418;-67
2022/01/26 11:05:52;;;;;;;87.95;42.35;;;;;;;-146.48;100.00;35349.78;5303329;28;20024;-67
2022/01/26 11:08:25;;;;;;;84.40;41.53;;;;;;;-146.48;100.00;35419.47;5302058;28;20617;-67
2022/01/26 11:10:57;;;;;;;83.20;41.05;;;;;;;-146.48;100.00;35431.41;5298390;28;20027;-67
2022/01/26 11:13:33;;;;;;;84.63;41.80;;;;;;;-146.48;100.00;35407.53;5291239;28;20027;-67
2022/01/26 11:16:16;;;;;;;87.97;41.85;;;;;;;-146.48;100.00;35393.59;5300868;28;20396;-69
2022/01/26 11:18:52;;;;;;;86.97;41.70;;;;;;;-146.48;100.00;35383.63;5301789;28;20487;-67
2022/01/26 11:21:30;;;;;;;91.43;42.42;;;;;;;-146.48;100.00;35361.72;5302033;28;20485;-69
2022/01/26 11:24:23;;;;;;;92.75;43.72;;;;;;;-146.48;100.00;35323.91;5300551;28;20036;-69
2022/01/26 11:27:05;;;;;;;83.35;40.42;;;;;;;-146.48;100.00;35339.81;5301706;28;20357;-67
2022/01/26 11:29:42;;;;;;;82.38;40.45;;;;;;;-146.48;100.00;35327.88;5301170;28;20039;-67
2022/01/26 11:32:26;;;;;;;86.10;40.47;;;;;;;-146.48;100.00;35270.13;5301567;28;20028;-67
2022/01/26 11:34:57;;;;;;;78.93;39.63;;;;;;;-146.48;100.00;35258.19;5301387;28;20421;-67
2022/01/26 11:37:40;;;;;;;83.60;38.72;;;;;;;-146.48;100.00;35305.97;5300676;28;20020;-67
2022/01/26 11:46:10;;;;;;;89.05;41.72;;;;;;;-146.48;100.00;35248.22;5296132;28;20032;-67
2022/01/26 11:48:42;;;;;;;83.18;42.08;;;;;;;-146.48;100.00;35294.03;5301437;28;20073;-67
2022/01/26 11:51:13;;;;;;;81.63;40.42;;;;;;;-146.48;100.00;35284.06;5300045;28;20027;-67
2022/01/26 11:53:44;;;;;;;88.40;41.42;;;;;;;-146.48;100.00;35317.91;5301330;28;20035;-68
2022/01/26 11:56:20;;;;;;;89.50;40.65;;;;;;;-146.48;100.00;35224.34;5301660;28;20048;-68
2022/01/26 11:58:53;;;;;;;84.32;41.28;;;;;;;-146.48;100.00;35292.03;5300962;28;20471;-68
2022/01/26 12:01:39;;;;;;;84.35;40.70;;;;;;;-146.48;100.00;35327.88;5301921;28;20533;-68
2022/01/26 12:04:16;;;;;;;86.45;40.72;;;;;;;-146.48;100.00;35331.84;5301491;28;20427;-68
2022/01/26 12:06:53;;;;;;;86.57;41.08;;;;;;;-146.48;100.00;35266.16;5301006;28;20040;-68
2022/01/26 12:09:24;;;;;;;83.32;40.25;;;;;;;-146.48;100.00;35258.19;5301874;28;20024;-68
2022/01/26 12:11:56;;;;;;;86.85;42.20;;;;;;;-146.48;100.00;35244.25;5300602;28;20023;-69
2022/01/26 12:14:27;;;;;;;87.70;41.97;;;;;;;-146.48;100.00;35272.13;5301893;28;20020;-68
2022/01/26 12:16:59;;;;;;;97.28;41.92;;;;;;;-146.48;100.00;35313.94;5301343;28;20032;-69
2022/01/26 12:19:46;;;;;;;76.65;35.63;;;;;;;-146.48;100.00;35315.94;5301086;28;20443;-69
2022/01/26 12:36:53;;;;;;;82.72;40.60;;;;;;;-146.48;100.00;35321.91;5301726;28;20036;-68
2022/01/26 12:42:35;;;;;;;82.88;40.47;;;;;;;-146.48;100.00;35248.22;5301293;28;20036;-68
2022/01/26 12:45:07;;;;;;;80.40;40.17;;;;;;;-146.48;100.00;35212.41;5301044;28;20089;-68
2022/01/26 12:47:38;;;;;;;82.70;40.40;;;;;;;-146.48;100.00;35250.22;5301017;28;20665;-68
2022/01/26 12:50:09;;;;;;;78.40;39.67;;;;;;;-146.48;100.00;35246.25;5300905;28;20020;-67
2022/01/26 12:52:46;;;;;;;78.40;38.80;;;;;;;-146.48;100.00;35292.03;5301480;28;20028;-67
2022/01/26 12:55:30;;;;;;;75.25;38.42;;;;;;;-146.48;100.00;35252.22;5300180;28;20368;-68
2022/01/26 12:58:03;;;;;;;73.10;38.67;;;;;;;-146.48;100.00;35286.06;5300791;28;20552;-68
2022/01/26 13:00:41;;;;;;;74.25;39.17;;;;;;;-146.48;100.00;35216.38;5301310;28;20024;-67
2022/01/26 13:03:14;;;;;;;73.40;39.83;;;;;;;-146.48;100.00;35100.91;5299613;28;20561;-68
2022/01/26 13:05:46;;;;;;;72.22;39.17;;;;;;;-146.48;100.00;35156.66;5300864;28;20487;-68